Time;durP1;ratioP1;P1;durP2;ratioP2;P2;SDS_P1;SDS_P2;PMS_P1;PMS_P2;Temp;Humidity;BMP_temperature;BMP_pressure;BME280_temperature;BME280_humidity;BME280_pressure;Samples;Min_cycle;Max_cycle;Signal;HPM_P1;HPM_P2
2021/12/28 05:02:41;;;;;;;39.80;13.35;;;;;;;-2.30;100.00;99270.88;4489249;31;156314;-77
2021/12/28 05:05:35;;;;;;;33.90;12.15;;;;;;;-1.87;100.00;99268.81;4464485;32;33709;-78
2021/12/28 05:08:22;;;;;;;;;;;;;;;-0.89;100.00;99269.44;4480560;32;35606;-78
2021/12/28 05:11:08;;;;;;;35.08;13.93;;;;;;;-0.31;99.24;99278.94;4474380;32;35208;-78
2021/12/28 05:13:58;;;;;;;34.00;13.95;;;;;;;0.06;95.47;99274.81;4482875;32;35411;-78
2021/12/28 05:16:44;;;;;;;41.65;14.98;;;;;;;0.36;92.46;99277.84;4486256;31;34160;-78
2021/12/28 05:19:30;;;;;;;37.70;13.80;;;;;;;0.36;91.18;99279.75;4466369;32;34622;-77
2021/12/28 05:22:17;;;;;;;36.75;13.62;;;;;;;0.52;90.13;99272.66;4476890;32;35943;-77
2021/12/28 05:25:04;;;;;;;30.05;11.98;;;;;;;0.06;92.34;99274.81;4474229;32;33992;-78
2021/12/28 05:27:50;;;;;;;29.58;11.43;;;;;;;0.22;91.27;99273.91;4481682;32;35113;-78
2021/12/28 05:30:37;;;;;;;25.12;9.68;;;;;;;0.32;90.69;99276.75;4473688;32;36040;-77
2021/12/28 05:33:23;;;;;;;25.55;9.95;;;;;;;0.51;89.97;99281.78;4474729;32;34827;-77
2021/12/28 05:36:10;;;;;;;22.23;9.02;;;;;;;0.75;89.19;99296.59;4483271;32;34572;-77
2021/12/28 05:38:56;;;;;;;20.50;9.00;;;;;;;0.66;88.41;99300.84;4476360;32;35072;-77
2021/12/28 05:41:42;;;;;;;21.92;8.48;;;;;;;0.64;89.27;99289.47;4487872;31;35630;-78
2021/12/28 05:44:29;;;;;;;21.92;9.18;;;;;;;0.40;89.65;99297.88;4479607;32;35948;-76
2021/12/28 05:47:15;;;;;;;24.90;8.25;;;;;;;0.35;89.26;99289.72;4481484;32;33460;-77
2021/12/28 05:50:03;;;;;;;22.40;7.95;;;;;;;0.69;87.46;99283.34;4471900;32;32676;-77
2021/12/28 05:52:49;;;;;;;16.50;7.68;;;;;;;0.83;87.11;99290.75;4484248;32;34481;-77
2021/12/28 05:55:35;;;;;;;28.27;9.25;;;;;;;0.62;87.81;99297.00;4475750;32;35016;-78
2021/12/28 05:58:22;;;;;;;22.58;8.73;;;;;;;0.51;87.61;99303.34;4477299;32;34176;-77
2021/12/28 06:01:08;;;;;;;22.25;7.78;;;;;;;0.62;88.84;99300.50;4461106;32;33459;-77
2021/12/28 06:03:55;;;;;;;22.90;8.27;;;;;;;0.86;87.12;99292.94;4474728;32;35289;-77
2021/12/28 06:06:41;;;;;;;22.30;7.60;;;;;;;0.94;86.80;99288.12;4476885;31;35733;-77
2021/12/28 06:09:27;;;;;;;24.35;7.35;;;;;;;0.83;86.70;99298.84;4477981;32;35309;-77
2021/12/28 06:12:17;;;;;;;19.60;7.68;;;;;;;1.06;85.67;99308.50;4474382;32;33827;-77
2021/12/28 06:15:07;;;;;;;18.50;7.15;;;;;;;1.09;85.15;99304.47;4469189;32;34406;-77
2021/12/28 06:17:53;;;;;;;20.00;7.95;;;;;;;0.81;86.43;99317.16;4456171;32;35756;-77
2021/12/28 06:20:39;;;;;;;19.33;8.02;;;;;;;0.31;88.66;99318.22;4472789;32;34610;-78
2021/12/28 06:23:26;;;;;;;19.90;7.80;;;;;;;0.74;87.27;99311.16;4472258;32;33764;-77
2021/12/28 06:26:12;;;;;;;21.70;7.93;;;;;;;0.66;86.32;99314.31;4454535;32;34503;-77
2021/12/28 06:28:59;;;;;;;21.73;8.75;;;;;;;0.96;85.66;99310.28;4464310;32;34971;-77
2021/12/28 06:31:46;;;;;;;18.48;7.25;;;;;;;0.48;87.86;99306.56;4471532;32;34610;-78
2021/12/28 06:34:32;;;;;;;20.52;7.72;;;;;;;0.63;86.99;99304.84;4464651;32;34292;-78
2021/12/28 06:37:21;;;;;;;20.23;8.18;;;;;;;0.89;86.50;99305.09;4461625;32;35591;-77
2021/12/28 06:40:08;;;;;;;18.73;8.13;;;;;;;0.80;86.11;99312.03;4475783;32;37790;-76
2021/12/28 06:42:55;;;;;;;19.73;7.53;;;;;;;0.85;86.75;99314.75;4474405;32;34580;-76
2021/12/28 06:45:42;;;;;;;19.95;7.93;;;;;;;1.05;85.64;99314.13;4477674;32;35121;-76
2021/12/28 06:48:28;;;;;;;33.30;9.50;;;;;;;0.95;86.52;99319.44;4467900;32;34596;-76
2021/12/28 06:51:15;;;;;;;20.92;8.98;;;;;;;0.84;86.45;99318.53;4458857;32;34899;-76
2021/12/28 06:54:02;;;;;;;25.23;9.13;;;;;;;0.90;85.95;99318.31;4467901;32;35395;-75
2021/12/28 06:56:48;;;;;;;20.02;8.07;;;;;;;0.59;87.48;99322.59;4469159;32;33621;-75
2021/12/28 06:59:43;;;;;;;21.62;8.75;;;;;;;0.83;87.11;99323.13;4466644;32;34667;-75
2021/12/28 07:02:32;;;;;;;22.62;9.25;;;;;;;1.19;85.22;99322.63;4477030;32;35672;-75
2021/12/28 07:05:18;;;;;;;21.52;8.50;;;;;;;1.25;84.79;99319.72;4480299;32;35716;-75
2021/12/28 07:08:05;;;;;;;22.48;8.07;;;;;;;1.15;85.03;99324.22;4477342;32;33922;-76
2021/12/28 07:10:51;;;;;;;19.37;7.97;;;;;;;1.17;84.89;99327.44;4460204;32;34517;-76
2021/12/28 07:17:27;;;;;;;16.45;8.07;;;;;;;0.75;88.01;99350.53;4504296;31;144711;-76
2021/12/28 07:20:15;;;;;;;23.85;8.77;;;;;;;0.75;88.01;99350.53;4498181;31;34831;-76
2021/12/28 07:23:01;;;;;;;21.00;8.70;;;;;;;0.43;88.95;99345.87;4489277;31;34559;-75
2021/12/28 07:25:47;;;;;;;20.98;9.35;;;;;;;0.42;88.37;99346.91;4486645;31;34577;-75
2021/12/28 07:28:34;;;;;;;23.77;9.38;;;;;;;1.08;86.66;99351.38;4499629;31;35331;-75
2021/12/28 07:31:20;;;;;;;21.02;8.40;;;;;;;0.61;87.62;99346.59;4487164;31;35013;-76
2021/12/28 07:34:06;;;;;;;21.00;8.95;;;;;;;0.66;87.62;99349.38;4493765;31;34717;-75
2021/12/28 07:36:53;;;;;;;23.33;8.88;;;;;;;0.96;86.29;99350.75;4496093;31;34770;-76
2021/12/28 07:39:39;;;;;;;19.80;8.38;;;;;;;0.82;86.56;99343.03;4490112;31;33277;-76
2021/12/28 07:42:26;;;;;;;21.90;8.50;;;;;;;1.08;85.83;99351.38;4497350;31;35259;-75
2021/12/28 07:45:13;;;;;;;20.75;7.60;;;;;;;0.79;86.15;99348.94;4497744;31;35512;-75
2021/12/28 07:48:00;;;;;;;19.77;8.07;;;;;;;0.79;86.75;99359.75;4497458;31;35019;-75
2021/12/28 07:50:46;;;;;;;19.95;7.15;;;;;;;0.87;86.61;99345.00;4485337;31;34013;-75
2021/12/28 07:53:36;;;;;;;19.35;9.02;;;;;;;0.98;86.08;99356.72;4487399;31;34224;-75
2021/12/28 07:56:22;;;;;;;21.42;9.77;;;;;;;1.03;86.04;99348.66;4495878;31;34348;-76
2021/12/28 07:59:08;;;;;;;35.15;14.23;;;;;;;0.99;85.98;99348.34;4486503;31;34920;-76
2021/12/28 14:06:12;;;;;;;14.98;7.10;;;;;;;-0.03;100.00;99154.06;4491543;31;514330;-75
2021/12/28 14:09:03;;;;;;;17.23;8.15;;;;;;;-0.03;100.00;99154.06;4503330;31;33969;-75
2021/12/28 14:11:53;;;;;;;14.53;7.10;;;;;;;0.13;100.00;99151.50;4487029;31;35231;-74
2021/12/28 14:14:46;;;;;;;18.42;8.13;;;;;;;0.64;100.00;99151.97;4501241;31;34953;-75
2021/12/28 14:17:32;;;;;;;15.52;7.35;;;;;;;0.75;100.00;99142.06;4484948;31;33291;-74
2021/12/28 14:20:28;;;;;;;15.55;6.15;;;;;;;1.02;100.00;99145.47;4499967;31;34976;-74
2021/12/28 14:23:26;;;;;;;20.60;8.57;;;;;;;1.15;98.13;99162.31;4499397;31;35584;-74
2021/12/28 14:26:17;;;;;;;14.40;7.53;;;;;;;1.15;95.97;99157.72;4488381;31;34955;-75
2021/12/28 14:29:31;;;;;;;14.20;7.15;;;;;;;1.41;94.94;99142.47;4490215;31;34555;-75
2021/12/28 14:32:19;;;;;;;15.80;7.47;;;;;;;1.29;93.61;99136.47;4498193;31;34147;-75
2021/12/28 14:35:11;;;;;;;16.33;7.53;;;;;;;1.09;95.02;99126.38;4501627;31;35453;-75
2021/12/28 14:37:57;;;;;;;13.60;6.97;;;;;;;1.23;93.62;99126.72;4499747;31;34843;-74
2021/12/28 14:40:45;;;;;;;15.57;6.72;;;;;;;1.11;94.82;99129.63;4499677;31;34210;-74
2021/12/28 14:43:31;;;;;;;15.88;7.57;;;;;;;1.20;93.40;99133.47;4501517;31;34089;-74
2021/12/28 14:46:27;;;;;;;15.23;7.60;;;;;;;1.64;91.56;99122.31;4488138;31;34742;-74
2021/12/28 14:49:34;;;;;;;12.52;6.72;;;;;;;1.59;91.12;99119.59;4488732;31;34600;-74
2021/12/28 14:52:24;;;;;;;12.25;6.03;;;;;;;1.34;91.35;99123.81;4502262;31;34166;-74
2021/12/28 14:55:13;;;;;;;13.73;6.70;;;;;;;1.16;92.08;99132.34;4499019;31;34219;-75
2021/12/28 14:58:21;;;;;;;13.57;6.32;;;;;;;1.35;92.23;99119.22;4501958;31;35499;-75
2021/12/28 15:01:08;;;;;;;14.20;7.10;;;;;;;1.50;91.00;99127.38;4487025;31;34647;-75
2021/12/28 15:03:56;;;;;;;12.82;6.57;;;;;;;1.56;90.61;99126.31;4497392;31;34444;-75
2021/12/28 15:06:52;;;;;;;13.02;6.15;;;;;;;1.45;91.04;99124.69;4485425;31;34076;-74
2021/12/28 15:09:38;;;;;;;17.00;7.22;;;;;;;1.20;91.32;99122.66;4496330;31;34046;-74
2021/12/28 15:12:36;;;;;;;12.93;6.00;;;;;;;1.35;91.10;99130.03;4484577;31;34994;-75
2021/12/28 15:15:22;;;;;;;12.15;5.75;;;;;;;1.59;90.40;99130.38;4496871;31;34352;-74
2021/12/28 15:18:13;;;;;;;11.48;5.00;;;;;;;1.52;90.22;99140.63;4476550;31;34156;-75
2021/12/28 15:21:00;;;;;;;13.07;5.53;;;;;;;0.90;91.66;99128.69;4478168;31;34204;-75
2021/12/28 15:23:46;;;;;;;11.80;5.45;;;;;;;1.22;91.63;99135.88;4491845;31;35925;-74
2021/12/28 15:26:33;;;;;;;10.07;5.10;;;;;;;1.31;90.02;99135.16;4469488;31;34487;-75
2021/12/28 15:29:19;;;;;;;12.30;6.43;;;;;;;1.37;90.39;99141.38;4476765;31;34160;-74
2021/12/28 15:32:05;;;;;;;15.15;7.40;;;;;;;1.53;89.01;99142.25;4474985;31;35533;-74
2021/12/28 15:34:56;;;;;;;12.65;5.80;;;;;;;1.13;90.96;99138.28;4475536;31;35966;-75
2021/12/28 15:37:44;;;;;;;12.25;5.00;;;;;;;1.13;91.12;99138.28;4474264;31;35094;-74
2021/12/28 15:40:55;;;;;;;13.60;6.35;;;;;;;0.91;91.49;99135.69;4486047;31;34060;-74
2021/12/28 15:43:44;;;;;;;11.80;5.90;;;;;;;0.62;92.88;99130.63;4488307;31;34543;-76
2021/12/28 15:46:34;;;;;;;12.98;5.70;;;;;;;0.72;93.21;99127.22;4484348;31;34005;-74
2021/12/28 15:49:22;;;;;;;11.05;5.35;;;;;;;0.62;93.24;99136.03;4475719;31;35369;-74
2021/12/28 15:52:09;;;;;;;12.68;5.45;;;;;;;0.53;94.36;99132.19;4488254;31;34116;-75
2021/12/28 15:54:55;;;;;;;11.65;5.78;;;;;;;0.76;94.00;99135.59;4480501;31;33446;-75
2021/12/28 15:57:42;;;;;;;14.27;6.90;;;;;;;0.92;92.87;99126.56;4475100;31;35000;-75
2021/12/28 16:00:28;;;;;;;12.35;5.70;;;;;;;0.80;92.50;99129.44;4474533;31;34457;-75
2021/12/28 16:03:15;;;;;;;15.77;7.55;;;;;;;0.88;92.46;99126.25;4475257;31;35003;-74
2021/12/28 16:06:01;;;;;;;14.63;7.93;;;;;;;1.23;91.11;99137.53;4471953;32;34181;-78
2021/12/28 16:08:48;;;;;;;15.93;6.70;;;;;;;0.79;92.25;99141.28;4459798;32;35628;-74
2021/12/28 16:11:40;;;;;;;15.38;6.85;;;;;;;1.08;92.25;99140.94;4469103;32;34860;-74
2021/12/28 16:14:27;;;;;;;14.35;6.50;;;;;;;1.15;91.30;99138.03;4467926;32;33888;-75
2021/12/28 16:17:14;;;;;;;15.20;6.93;;;;;;;0.99;92.31;99131.72;4473085;32;34281;-75
2021/12/28 16:20:00;;;;;;;16.95;7.53;;;;;;;1.38;90.10;99129.50;4464273;32;35091;-75
2021/12/28 16:22:47;;;;;;;14.27;7.68;;;;;;;1.35;90.68;99133.53;4459413;32;35315;-74
2021/12/28 16:25:34;;;;;;;15.40;7.37;;;;;;;1.63;89.57;99131.50;4469382;32;34118;-76
2021/12/28 16:28:21;;;;;;;14.65;6.85;;;;;;;1.56;89.21;99125.50;4457373;32;35459;-75
2021/12/28 16:31:07;;;;;;;15.85;7.12;;;;;;;1.32;90.07;99130.56;4461434;32;34964;-75
2021/12/28 16:33:56;;;;;;;19.40;7.75;;;;;;;1.22;90.98;99125.91;4469217;32;34211;-74
2021/12/28 16:36:43;;;;;;;17.35;7.35;;;;;;;0.73;92.56;99115.34;4475053;31;34138;-74
2021/12/28 16:39:32;;;;;;;15.95;7.93;;;;;;;1.09;92.06;99104.81;4455967;32;35362;-75
2021/12/28 16:42:18;;;;;;;15.45;8.15;;;;;;;0.78;93.04;99110.00;4471915;32;34876;-74
2021/12/28 16:45:06;;;;;;;16.65;7.72;;;;;;;0.63;93.75;99113.41;4476048;32;34541;-74
2021/12/28 16:47:53;;;;;;;16.25;7.90;;;;;;;0.77;94.21;99115.66;4474261;32;33493;-74
2021/12/28 16:50:41;;;;;;;16.90;7.82;;;;;;;1.05;93.26;99125.25;4461910;32;34594;-73
2021/12/28 16:53:27;;;;;;;16.35;7.43;;;;;;;1.07;92.03;99126.63;4468255;31;34983;-73
2021/12/28 16:56:16;;;;;;;15.48;7.30;;;;;;;0.81;93.33;99130.25;4465392;32;34188;-75
2021/12/28 16:59:03;;;;;;;15.68;7.82;;;;;;;1.10;92.82;99119.91;4454132;32;34692;-75
2021/12/28 17:01:51;;;;;;;16.12;8.02;;;;;;;0.97;93.09;99129.28;4474733;32;34603;-73
2021/12/28 17:04:39;;;;;;;16.37;7.68;;;;;;;0.79;94.36;99127.00;4467703;31;34659;-74
2021/12/28 17:07:25;;;;;;;20.90;9.05;;;;;;;0.97;93.73;99113.09;4483794;31;34607;-74
2021/12/28 17:10:12;;;;;;;15.98;8.10;;;;;;;1.01;93.11;99098.00;4486664;31;34096;-76
2021/12/28 17:12:59;;;;;;;20.55;8.68;;;;;;;0.62;95.82;99110.97;4454459;31;34440;-75
2021/12/28 17:15:46;;;;;;;21.37;9.18;;;;;;;0.71;95.85;99104.00;4466596;31;35632;-76
2021/12/28 17:18:38;;;;;;;16.87;8.40;;;;;;;0.72;95.12;99099.44;4467096;31;35161;-77
2021/12/28 17:21:25;;;;;;;19.70;9.10;;;;;;;0.72;95.72;99099.44;4477004;31;33185;-76
2021/12/28 17:24:11;;;;;;;19.92;9.07;;;;;;;0.44;97.20;99093.31;4484837;31;35133;-76
2021/12/28 17:26:59;;;;;;;14.98;8.68;;;;;;;0.62;97.28;99086.69;4465244;31;34837;-74
2021/12/28 17:29:45;;;;;;;18.17;8.85;;;;;;;0.88;95.90;99075.03;4488976;31;34497;-76
2021/12/28 17:32:32;;;;;;;14.20;6.82;;;;;;;0.47;96.90;99076.63;4488485;31;34876;-76
2021/12/28 17:35:22;;;;;;;16.60;8.13;;;;;;;0.73;96.71;99084.88;4482383;31;34342;-77
2021/12/28 17:38:09;;;;;;;16.65;8.13;;;;;;;0.96;96.04;99073.69;4486779;31;35887;-77
2021/12/28 17:40:58;;;;;;;20.33;8.23;;;;;;;0.82;95.24;99073.34;4486500;31;34680;-77
2021/12/28 17:43:45;;;;;;;13.30;6.37;;;;;;;1.04;95.15;99086.69;4474476;31;35108;-77
2021/12/28 17:46:31;;;;;;;16.08;6.85;;;;;;;1.12;94.03;99074.59;4484526;31;34660;-77
2021/12/28 17:49:18;;;;;;;12.75;6.62;;;;;;;1.07;93.51;99080.75;4471660;31;34753;-75
2021/12/28 17:52:04;;;;;;;13.65;6.47;;;;;;;0.80;94.90;99077.41;4473623;31;34468;-77
2021/12/28 17:54:51;;;;;;;13.85;6.32;;;;;;;0.98;95.36;99084.22;4473363;31;32690;-76
2021/12/28 17:57:41;;;;;;;12.85;5.95;;;;;;;1.00;94.99;99082.91;4471028;31;34603;-74
2021/12/28 18:00:47;;;;;;;12.73;6.87;;;;;;;0.82;95.13;99067.94;4484068;31;34701;-75
2021/12/28 18:03:33;;;;;;;15.02;8.07;;;;;;;0.71;95.95;99063.56;4469109;31;35861;-76
2021/12/28 18:06:20;;;;;;;14.70;7.72;;;;;;;0.76;96.12;99063.59;4456106;32;35041;-75
2021/12/28 18:09:07;;;;;;;15.38;8.10;;;;;;;0.64;96.47;99071.09;4472366;32;34669;-75
2021/12/28 18:11:53;;;;;;;16.02;7.80;;;;;;;0.59;96.59;99058.38;4470396;32;35940;-74
2021/12/28 18:14:40;;;;;;;14.75;8.27;;;;;;;0.95;95.89;99057.78;4470425;32;34367;-76
2021/12/28 18:17:27;;;;;;;16.87;7.97;;;;;;;1.20;95.13;99055.22;4472845;32;33425;-75
2021/12/28 18:20:15;;;;;;;15.52;7.60;;;;;;;1.02;94.68;99052.94;4460545;32;33260;-75
2021/12/28 18:23:01;;;;;;;16.02;8.35;;;;;;;0.93;96.16;99036.44;4469577;32;34893;-74
2021/12/28 18:25:49;;;;;;;15.82;8.07;;;;;;;0.76;96.29;99027.72;4470918;32;35152;-74
2021/12/28 18:28:36;;;;;;;18.48;8.43;;;;;;;0.76;96.30;99036.62;4457846;32;33748;-73
2021/12/28 18:31:23;;;;;;;16.75;7.80;;;;;;;0.89;95.58;99041.56;4461810;32;34335;-74
2021/12/28 18:34:10;;;;;;;18.83;8.77;;;;;;;0.83;96.14;99042.63;4470462;32;34955;-74
2021/12/28 18:37:00;;;;;;;17.65;8.57;;;;;;;0.65;97.00;99037.66;4456547;32;34534;-77
2021/12/28 18:39:47;;;;;;;18.58;8.25;;;;;;;0.90;96.11;99031.59;4458769;32;33698;-76
2021/12/28 18:42:33;;;;;;;17.65;8.98;;;;;;;0.84;96.44;99046.13;4460415;32;34471;-75
2021/12/28 18:45:20;;;;;;;14.90;8.13;;;;;;;1.12;96.06;99044.91;4471282;32;34927;-76
2021/12/28 18:48:09;;;;;;;16.35;8.45;;;;;;;1.16;95.18;99035.19;4458678;32;33228;-76
2021/12/28 18:50:58;;;;;;;16.17;8.57;;;;;;;1.20;93.82;99038.22;4467482;32;34845;-77
2021/12/28 18:53:46;;;;;;;16.33;7.80;;;;;;;0.97;95.04;99044.81;4470852;32;36414;-76
2021/12/28 18:56:33;;;;;;;15.70;8.07;;;;;;;1.16;95.42;99046.00;4468677;32;33653;-76
2021/12/28 18:59:32;;;;;;;18.17;7.78;;;;;;;0.87;96.08;99059.88;4459029;32;34253;-76
2021/12/28 19:02:19;;;;;;;20.08;8.40;;;;;;;0.61;98.23;99071.59;4468844;32;34231;-77
2021/12/28 19:05:06;;;;;;;18.60;8.85;;;;;;;0.83;95.93;99056.09;4457176;31;35559;-75
2021/12/28 19:07:52;;;;;;;16.27;8.15;;;;;;;1.22;95.21;99042.25;4484313;31;33633;-75
2021/12/28 19:10:39;;;;;;;14.18;6.68;;;;;;;0.88;94.52;99037.25;4472533;31;34219;-75
2021/12/28 19:13:25;;;;;;;13.10;7.35;;;;;;;0.97;96.16;99048.34;4474755;31;34044;-74
2021/12/28 19:16:12;;;;;;;13.35;6.65;;;;;;;0.90;96.20;99048.56;4475325;31;34377;-75
2021/12/28 19:18:58;;;;;;;17.08;8.40;;;;;;;0.79;97.07;99041.50;4486766;31;34689;-75
2021/12/28 19:21:44;;;;;;;13.70;7.00;;;;;;;0.56;97.42;99041.91;4486226;31;34260;-74
2021/12/28 19:24:38;;;;;;;13.43;6.57;;;;;;;0.79;97.60;99033.41;4487391;31;33963;-75
2021/12/28 19:27:25;;;;;;;13.77;7.07;;;;;;;0.63;98.32;99046.00;4474640;31;34678;-75
2021/12/28 19:30:12;;;;;;;12.63;6.53;;;;;;;0.94;97.66;99042.66;4474471;31;37519;-75
2021/12/28 19:33:00;;;;;;;13.15;7.62;;;;;;;0.94;96.91;99038.09;4475682;31;34304;-76
2021/12/28 19:35:47;;;;;;;13.82;7.05;;;;;;;0.82;96.57;99040.97;4485735;31;33771;-75
2021/12/28 19:38:35;;;;;;;13.50;7.20;;;;;;;0.82;96.31;99048.25;4473720;31;35495;-76
2021/12/28 19:41:21;;;;;;;14.27;6.95;;;;;;;0.90;96.61;99045.88;4477928;31;34573;-75
2021/12/28 19:44:07;;;;;;;13.35;6.57;;;;;;;0.92;96.51;99045.63;4478820;31;34142;-75
2021/12/28 19:46:54;;;;;;;12.07;6.43;;;;;;;1.05;96.52;99044.31;4475660;31;33846;-76
2021/12/28 19:49:41;;;;;;;13.82;6.65;;;;;;;1.13;96.59;99041.13;4488564;31;34267;-76
2021/12/28 19:52:27;;;;;;;11.50;6.35;;;;;;;1.07;95.45;99034.91;4473120;31;34582;-75
2021/12/28 19:55:16;;;;;;;10.90;6.53;;;;;;;1.15;94.91;99030.88;4480012;31;34538;-76
2021/12/28 19:58:02;;;;;;;12.05;6.55;;;;;;;1.26;94.84;99032.56;4473963;31;34048;-75
2021/12/28 20:00:49;;;;;;;17.83;8.18;;;;;;;1.04;95.38;99037.31;4486940;31;35338;-75
2021/12/28 20:03:37;;;;;;;12.52;6.70;;;;;;;0.99;96.18;99031.91;4453698;31;34834;-75
2021/12/28 20:06:25;;;;;;;25.05;9.85;;;;;;;0.88;96.90;99028.34;4473213;31;34218;-75
2021/12/28 20:09:11;;;;;;;13.68;6.65;;;;;;;0.89;96.75;99028.09;4473684;31;32713;-74
2021/12/28 20:11:58;;;;;;;12.90;6.55;;;;;;;0.94;96.43;99027.31;4487202;31;34596;-74
2021/12/28 20:14:46;;;;;;;11.12;5.97;;;;;;;1.00;95.37;99020.06;4461982;31;35062;-75
2021/12/28 20:17:32;;;;;;;11.12;6.05;;;;;;;0.76;96.19;99031.25;4487724;31;35341;-74
2021/12/28 20:20:19;;;;;;;11.63;6.05;;;;;;;0.78;97.48;99039.88;4486715;31;33004;-75
2021/12/28 20:23:06;;;;;;;11.43;6.03;;;;;;;1.14;95.76;99026.59;4474963;31;34546;-75
2021/12/28 20:25:56;;;;;;;11.75;6.43;;;;;;;1.19;95.25;99023.88;4474313;31;35758;-75
2021/12/28 20:28:43;;;;;;;11.07;5.60;;;;;;;1.04;96.25;99011.16;4475141;31;34285;-75
2021/12/28 20:31:31;;;;;;;10.85;5.90;;;;;;;1.21;95.09;98999.34;4486220;31;34205;-75
2021/12/28 20:34:17;;;;;;;10.27;5.37;;;;;;;0.85;96.82;99002.72;4475161;31;35178;-75
2021/12/28 20:37:04;;;;;;;11.52;5.95;;;;;;;1.21;95.37;98999.34;4475506;31;33985;-74
2021/12/28 20:39:50;;;;;;;15.68;6.93;;;;;;;1.01;96.28;98997.38;4486276;31;34418;-74
2021/12/28 20:42:37;;;;;;;11.65;6.20;;;;;;;0.86;96.38;98990.03;4474353;31;33588;-75
2021/12/28 20:45:23;;;;;;;11.02;5.72;;;;;;;0.88;96.26;98985.16;4487836;31;35209;-75
2021/12/28 20:48:12;;;;;;;10.40;5.97;;;;;;;0.92;96.56;98980.09;4474901;31;34710;-75
2021/12/28 20:50:59;;;;;;;11.85;5.70;;;;;;;0.98;96.82;98973.63;4484668;31;35171;-75
2021/12/28 20:54:05;;;;;;;11.93;5.82;;;;;;;1.04;95.57;98972.56;4478609;31;34098;-74
2021/12/28 20:56:52;;;;;;;10.55;5.70;;;;;;;0.96;97.01;98975.78;4480427;31;33511;-75
2021/12/28 20:59:38;;;;;;;10.18;6.05;;;;;;;1.04;95.88;98981.47;4484480;31;35974;-75
2021/12/28 21:02:25;;;;;;;11.43;5.80;;;;;;;0.74;96.46;98981.34;4486206;31;37154;-75
2021/12/28 21:05:12;;;;;;;10.77;5.53;;;;;;;0.76;97.77;98979.19;4483619;31;35049;-75
2021/12/28 21:08:00;;;;;;;11.30;6.05;;;;;;;1.06;96.62;98975.81;4489458;31;34269;-75
2021/12/28 21:10:48;;;;;;;12.50;6.07;;;;;;;1.01;96.64;98973.09;4486053;31;36023;-75
2021/12/28 21:13:34;;;;;;;11.02;5.75;;;;;;;0.94;96.45;98983.31;4482000;31;35229;-75
2021/12/28 21:16:21;;;;;;;10.35;5.85;;;;;;;1.07;95.38;98974.72;4484278;31;34123;-75
2021/12/28 21:19:08;;;;;;;10.43;5.60;;;;;;;1.07;95.14;98972.84;4471385;31;34207;-75
2021/12/28 21:21:57;;;;;;;10.75;6.10;;;;;;;1.29;94.96;98974.53;4490890;31;35949;-75
2021/12/28 21:24:53;;;;;;;12.80;7.50;;;;;;;1.24;94.86;98967.22;4463116;31;34155;-75
2021/12/28 21:27:43;;;;;;;15.85;8.52;;;;;;;1.25;94.83;98968.88;4481811;31;35110;-75
2021/12/28 21:30:30;;;;;;;10.95;6.53;;;;;;;1.61;93.13;98971.63;4469980;31;35498;-74
2021/12/28 21:33:23;;;;;;;16.02;8.32;;;;;;;1.32;93.50;98961.31;4486188;31;34601;-75
2021/12/28 21:36:12;;;;;;;14.38;8.13;;;;;;;1.40;93.36;98964.59;4479588;31;34204;-74
2021/12/28 21:38:59;;;;;;;12.77;6.85;;;;;;;1.57;92.94;98957.03;4477875;31;34322;-75
2021/12/28 21:41:45;;;;;;;12.37;6.82;;;;;;;1.19;94.87;98948.31;4491539;31;34529;-74
2021/12/28 21:44:32;;;;;;;9.85;6.05;;;;;;;1.38;93.92;98942.44;4484220;31;35489;-75
2021/12/28 21:47:21;;;;;;;10.05;6.18;;;;;;;1.12;95.35;98948.59;4475840;31;35550;-74
2021/12/28 21:50:07;;;;;;;10.57;6.37;;;;;;;1.29;94.20;98959.16;4471995;31;34857;-74
2021/12/28 21:52:54;;;;;;;11.02;5.97;;;;;;;1.20;94.64;98965.34;4486737;31;34545;-75
2021/12/28 21:55:41;;;;;;;12.00;6.90;;;;;;;1.06;96.07;98965.84;4486616;31;36393;-75
2021/12/28 21:58:28;;;;;;;9.77;5.85;;;;;;;1.13;96.20;98965.56;4481121;31;35161;-75
